createdAt,value
2023-05-24T00:01:49.665Z,10.70
2023-05-24T00:04:12.237Z,10.97
2023-05-24T00:06:37.629Z,9.43
2023-05-24T00:08:59.062Z,11.37
2023-05-24T00:11:21.047Z,14.27
2023-05-24T00:13:42.502Z,14.13
2023-05-24T00:16:04.113Z,9.67
2023-05-24T00:18:26.230Z,11.40
2023-05-24T00:20:48.083Z,9.60
2023-05-24T00:23:09.827Z,12.97
2023-05-24T00:25:31.315Z,13.43
2023-05-24T00:27:52.813Z,14.97
2023-05-24T00:30:14.390Z,9.97
2023-05-24T00:32:35.878Z,7.30
2023-05-24T00:34:57.450Z,16.13
2023-05-24T00:37:18.981Z,15.30
2023-05-24T00:39:41.407Z,10.23
2023-05-24T00:42:03.147Z,15.60
2023-05-24T00:44:24.668Z,12.33
2023-05-24T00:46:46.392Z,12.63
2023-05-24T00:49:08.938Z,10.77
2023-05-24T00:51:32.145Z,12.77
2023-05-24T00:53:54.807Z,14.27
2023-05-24T00:56:17.499Z,12.70
2023-05-24T00:58:39.321Z,12.53
2023-05-24T01:01:01.968Z,10.97
2023-05-24T01:03:23.626Z,11.03
2023-05-24T01:05:45.639Z,10.70
2023-05-24T01:08:20.461Z,13.87
2023-05-24T01:11:06.540Z,16.80
2023-05-24T01:13:36.262Z,12.20
2023-05-24T01:16:12.088Z,18.80
2023-05-24T01:18:38.898Z,16.70
2023-05-24T01:21:34.806Z,10.87
2023-05-24T01:24:29.417Z,14.60
2023-05-24T01:27:07.128Z,15.63
2023-05-24T01:29:31.299Z,16.20
2023-05-24T01:31:53.361Z,11.00
2023-05-24T01:34:14.847Z,12.87
2023-05-24T01:36:36.363Z,13.27
2023-05-24T01:38:57.909Z,17.23
2023-05-24T01:41:27.121Z,14.47
2023-05-24T01:44:00.445Z,14.93
2023-05-24T01:46:39.920Z,10.77
2023-05-24T01:49:18.161Z,16.23
2023-05-24T01:51:54.044Z,15.90
2023-05-24T01:54:18.024Z,14.53
2023-05-24T01:56:41.842Z,15.30
2023-05-24T01:59:04.261Z,13.10
2023-05-24T02:01:26.756Z,15.03
2023-05-24T02:03:48.978Z,12.53
2023-05-24T02:06:10.835Z,16.07
2023-05-24T02:08:32.443Z,15.53
2023-05-24T02:10:53.881Z,13.07
2023-05-24T02:13:18.142Z,13.23
2023-05-24T02:15:41.907Z,12.57
2023-05-24T02:18:04.208Z,15.73
2023-05-24T02:20:26.521Z,16.83
2023-05-24T02:22:49.266Z,15.70
2023-05-24T02:25:10.867Z,15.53
2023-05-24T02:27:32.336Z,16.27
2023-05-24T02:29:53.815Z,17.70
2023-05-24T02:32:15.443Z,13.07
2023-05-24T02:34:36.903Z,12.50
2023-05-24T02:36:58.851Z,13.70
2023-05-24T02:39:20.531Z,11.70
2023-05-24T02:41:41.981Z,15.33
2023-05-24T02:44:03.406Z,14.40
2023-05-24T02:46:25.005Z,14.63
2023-05-24T02:48:46.652Z,12.87
2023-05-24T02:51:08.144Z,13.80
2023-05-24T02:53:33.366Z,18.73
2023-05-24T02:55:54.845Z,15.00
2023-05-24T02:58:17.678Z,16.70
2023-05-24T03:00:39.310Z,14.00
2023-05-24T03:03:03.302Z,14.63
2023-05-24T03:05:24.931Z,13.33
2023-05-24T03:07:46.556Z,13.43
2023-05-24T03:10:08.342Z,13.47
2023-05-24T03:12:29.926Z,18.27
2023-05-24T03:14:51.469Z,14.60
2023-05-24T03:17:12.953Z,20.20
2023-05-24T03:19:34.375Z,17.43
2023-05-24T03:21:55.981Z,16.83
2023-05-24T03:24:17.447Z,16.57
2023-05-24T03:26:40.633Z,15.27
2023-05-24T03:29:02.106Z,15.57
2023-05-24T03:31:26.548Z,22.33
2023-05-24T03:33:48.153Z,18.37
2023-05-24T03:36:09.606Z,13.77
2023-05-24T03:38:31.930Z,19.33
2023-05-24T03:40:53.399Z,17.37
2023-05-24T03:43:14.856Z,20.47
2023-05-24T03:45:39.813Z,18.40
2023-05-24T03:48:01.743Z,17.00
2023-05-24T03:50:23.306Z,14.33
2023-05-24T03:52:44.741Z,16.20
2023-05-24T03:55:06.688Z,13.67
2023-05-24T03:57:28.123Z,23.77
2023-05-24T03:59:49.617Z,15.80
2023-05-24T04:02:11.183Z,13.73
2023-05-24T04:04:32.813Z,13.60
2023-05-24T04:06:54.342Z,19.23
2023-05-24T04:09:16.202Z,12.50
2023-05-24T04:11:37.690Z,17.90
2023-05-24T04:14:02.602Z,20.33
2023-05-24T04:16:24.600Z,19.10
2023-05-24T04:18:46.639Z,16.97
2023-05-24T04:21:08.234Z,15.43
2023-05-24T04:23:29.714Z,18.03
2023-05-24T04:25:51.185Z,14.20
2023-05-24T04:28:12.664Z,19.00
2023-05-24T04:30:34.142Z,12.30
2023-05-24T04:32:56.949Z,14.60
2023-05-24T04:35:18.658Z,13.40
2023-05-24T04:37:40.994Z,13.10
2023-05-24T04:40:06.033Z,17.27
2023-05-24T04:42:32.206Z,14.90
2023-05-24T04:44:53.854Z,11.90
2023-05-24T04:47:16.293Z,12.83
2023-05-24T04:49:37.804Z,15.00
2023-05-24T04:51:59.402Z,19.17
2023-05-24T04:54:20.972Z,13.83
2023-05-24T04:56:42.443Z,20.67
2023-05-24T04:59:05.861Z,22.80
2023-05-24T05:01:27.602Z,20.87
2023-05-24T05:03:49.110Z,15.17
2023-05-24T05:06:10.628Z,16.87
2023-05-24T05:08:32.080Z,17.93
2023-05-24T05:10:53.707Z,23.23
2023-05-24T05:13:15.247Z,16.07
2023-05-24T05:15:36.721Z,19.00
2023-05-24T05:17:58.238Z,17.13
2023-05-24T05:20:19.839Z,23.50
2023-05-24T05:22:48.737Z,18.37
2023-05-24T05:25:10.297Z,24.80
2023-05-24T05:27:31.786Z,19.23
2023-05-24T05:29:53.336Z,22.27
2023-05-24T05:32:15.075Z,19.33
2023-05-24T05:34:36.538Z,18.83
2023-05-24T05:36:57.959Z,20.67
2023-05-24T05:39:19.399Z,15.53
2023-05-24T05:41:46.409Z,24.93
2023-05-24T05:44:08.259Z,20.50
2023-05-24T05:46:29.787Z,19.03
2023-05-24T05:48:51.349Z,16.97
2023-05-24T05:51:13.062Z,16.47
2023-05-24T05:53:34.752Z,19.30
2023-05-24T05:55:56.246Z,23.50
2023-05-24T05:58:17.747Z,19.23
2023-05-24T06:00:40.592Z,18.70
2023-05-24T06:03:02.290Z,20.07
2023-05-24T06:05:23.912Z,20.83
2023-05-24T06:07:45.949Z,18.30
2023-05-24T06:10:07.769Z,23.50
2023-05-24T06:12:29.248Z,24.37
2023-05-24T06:14:50.706Z,18.60
2023-05-24T06:17:12.471Z,25.07
2023-05-24T06:19:34.050Z,19.93
2023-05-24T06:21:55.969Z,24.10
2023-05-24T06:24:21.508Z,21.53
2023-05-24T06:26:43.020Z,15.73
2023-05-24T06:29:04.459Z,26.17
2023-05-24T06:31:25.969Z,17.93
2023-05-24T06:33:59.742Z,15.43
2023-05-24T06:36:24.901Z,28.23
2023-05-24T06:38:46.381Z,21.23
2023-05-24T06:41:08.821Z,36.80
2023-05-24T06:43:30.758Z,21.43
2023-05-24T06:45:52.263Z,25.40
2023-05-24T06:48:13.865Z,19.40
2023-05-24T06:50:36.452Z,19.90
2023-05-24T06:52:57.909Z,18.17
2023-05-24T06:55:19.960Z,19.17
2023-05-24T06:57:41.654Z,17.93
2023-05-24T07:00:05.644Z,27.27
2023-05-24T07:02:28.647Z,19.50
2023-05-24T07:04:50.183Z,13.57
2023-05-24T07:07:13.281Z,20.23
2023-05-24T07:09:34.766Z,18.63
2023-05-24T07:11:56.255Z,24.43
2023-05-24T07:14:17.736Z,20.10
2023-05-24T07:16:39.231Z,17.90
2023-05-24T07:19:03.163Z,18.10
2023-05-24T07:21:26.176Z,22.63
2023-05-24T07:23:47.635Z,16.53
2023-05-24T07:26:09.180Z,20.93
2023-05-24T07:28:31.052Z,20.87
2023-05-24T07:30:52.815Z,20.33
2023-05-24T07:33:14.536Z,18.03
2023-05-24T07:35:36.245Z,22.27
2023-05-24T07:37:57.706Z,25.93
2023-05-24T07:40:19.170Z,21.90
2023-05-24T07:42:41.403Z,20.17
2023-05-24T07:45:03.148Z,19.43
2023-05-24T07:47:24.679Z,19.77
2023-05-24T07:49:46.334Z,26.17
2023-05-24T07:52:07.812Z,22.37
2023-05-24T07:54:29.275Z,24.17
2023-05-24T07:56:50.771Z,17.70
2023-05-24T07:59:12.259Z,20.87
2023-05-24T08:01:36.907Z,20.70
2023-05-24T08:03:58.542Z,18.43
2023-05-24T08:06:20.154Z,21.23
2023-05-24T08:08:41.654Z,23.17
2023-05-24T08:11:03.216Z,24.33
2023-05-24T08:13:24.684Z,19.80
2023-05-24T08:15:46.453Z,22.00
2023-05-24T08:18:08.039Z,19.20
2023-05-24T08:20:29.601Z,21.15
2023-05-24T08:22:51.133Z,21.98
2023-05-24T08:25:12.603Z,19.35
2023-05-24T08:27:34.093Z,21.40
2023-05-24T08:29:57.106Z,19.52
2023-05-24T08:32:18.728Z,20.45
2023-05-24T08:34:40.475Z,29.45
2023-05-24T08:37:02.090Z,15.43
2023-05-24T08:39:23.828Z,15.80
2023-05-24T08:41:57.324Z,17.88
2023-05-24T08:44:29.937Z,22.90
2023-05-24T08:46:53.815Z,20.65
2023-05-24T08:49:16.278Z,24.05
2023-05-24T08:51:39.706Z,17.17
2023-05-24T08:54:01.350Z,20.08
2023-05-24T08:56:23.250Z,20.30
2023-05-24T08:58:48.167Z,19.95
2023-05-24T09:01:11.747Z,18.35
2023-05-24T09:03:35.264Z,18.15
2023-05-24T09:05:56.888Z,23.27
2023-05-24T09:08:20.480Z,21.17
2023-05-24T09:10:54.039Z,20.52
2023-05-24T09:13:18.486Z,16.25
2023-05-24T09:15:40.105Z,19.15
2023-05-24T09:18:01.722Z,17.65
2023-05-24T09:20:23.341Z,21.15
2023-05-24T09:22:48.327Z,17.05
2023-05-24T09:25:13.181Z,16.73
2023-05-24T09:27:35.542Z,15.02
2023-05-24T09:29:57.117Z,15.35
2023-05-24T09:32:22.128Z,15.80
2023-05-24T09:34:47.239Z,15.45
2023-05-24T09:37:16.589Z,14.13
2023-05-24T09:39:39.353Z,16.50
2023-05-24T09:42:02.979Z,13.77
2023-05-24T09:44:25.707Z,22.50
2023-05-24T09:46:47.510Z,17.88
2023-05-24T09:49:09.564Z,16.70
2023-05-24T09:51:31.132Z,14.40
2023-05-24T09:53:57.078Z,13.23
2023-05-24T09:56:19.455Z,17.60
2023-05-24T09:58:42.287Z,13.68
2023-05-24T10:01:08.993Z,13.95
2023-05-24T10:03:30.670Z,12.32
2023-05-24T10:05:54.252Z,13.38
2023-05-24T10:08:16.136Z,13.40
2023-05-24T10:10:37.680Z,15.23
2023-05-24T10:13:00.463Z,17.05
2023-05-24T10:15:22.193Z,11.88
2023-05-24T10:17:43.705Z,15.63
2023-05-24T10:20:07.204Z,13.18
2023-05-24T10:22:29.306Z,14.68
2023-05-24T10:24:59.024Z,12.50
2023-05-24T10:27:24.721Z,14.30
2023-05-24T10:30:01.489Z,15.88
2023-05-24T10:32:25.271Z,14.85
2023-05-24T10:34:48.051Z,17.50
2023-05-24T10:37:09.660Z,19.02
2023-05-24T10:39:33.438Z,15.90
2023-05-24T10:41:58.089Z,13.75
2023-05-24T10:44:20.419Z,15.02
2023-05-24T10:47:15.705Z,15.40
2023-05-24T10:49:39.700Z,15.63
2023-05-24T10:52:03.000Z,16.17
2023-05-24T10:54:27.190Z,14.52
2023-05-24T10:56:50.665Z,14.35
2023-05-24T10:59:23.708Z,12.00
2023-05-24T11:01:45.373Z,14.02
2023-05-24T11:04:07.016Z,15.43
2023-05-24T11:06:49.794Z,15.57
2023-05-24T11:09:11.302Z,9.52
2023-05-24T11:11:32.859Z,12.10
2023-05-24T11:14:00.355Z,14.80
2023-05-24T11:16:37.581Z,16.85
2023-05-24T11:19:11.430Z,15.75
2023-05-24T11:21:33.712Z,12.05
2023-05-24T11:23:55.502Z,14.80
2023-05-24T11:26:17.474Z,12.95
2023-05-24T11:28:39.511Z,15.52
2023-05-24T11:31:08.416Z,16.17
2023-05-24T11:33:29.933Z,14.30
2023-05-24T11:35:52.922Z,11.38
2023-05-24T11:38:15.989Z,10.93
2023-05-24T11:40:39.188Z,11.20
2023-05-24T11:43:00.782Z,10.00
2023-05-24T11:45:22.541Z,12.20
2023-05-24T11:47:44.252Z,13.88
2023-05-24T11:50:07.067Z,12.90
2023-05-24T11:52:28.713Z,13.60
2023-05-24T11:54:50.658Z,12.95
2023-05-24T11:57:12.883Z,15.23
2023-05-24T11:59:37.836Z,15.68
2023-05-24T12:02:05.587Z,17.00
2023-05-24T12:04:29.230Z,14.77
2023-05-24T12:06:50.806Z,13.73
2023-05-24T12:09:16.844Z,15.93
2023-05-24T12:11:42.682Z,11.18
2023-05-24T12:14:05.317Z,13.23
2023-05-24T12:16:29.859Z,12.52
2023-05-24T12:19:03.006Z,14.25
2023-05-24T12:21:30.613Z,11.13
2023-05-24T12:23:52.291Z,9.73
2023-05-24T12:26:14.836Z,14.20
2023-05-24T12:28:39.244Z,14.00
2023-05-24T12:31:00.808Z,13.52
2023-05-24T12:33:23.609Z,14.27
2023-05-24T12:35:46.735Z,16.20
2023-05-24T12:38:11.551Z,14.20
2023-05-24T12:40:33.565Z,12.88
2023-05-24T12:42:58.093Z,10.77
2023-05-24T12:45:23.028Z,11.52
2023-05-24T12:47:44.585Z,13.27
2023-05-24T12:50:06.465Z,17.05
2023-05-24T12:52:28.025Z,16.88
2023-05-24T12:54:49.534Z,11.25
2023-05-24T12:57:11.175Z,9.70
2023-05-24T12:59:33.761Z,14.38
2023-05-24T13:01:55.580Z,9.25
2023-05-24T13:04:18.021Z,11.95
2023-05-24T13:06:39.473Z,9.95
2023-05-24T13:09:01.910Z,41.47
2023-05-24T13:11:25.152Z,13.65
2023-05-24T13:13:46.721Z,10.23
2023-05-24T13:16:08.993Z,13.13
2023-05-24T13:18:30.519Z,11.70
2023-05-24T13:20:52.424Z,10.40
2023-05-24T13:23:13.921Z,10.43
2023-05-24T13:25:35.429Z,11.63
2023-05-24T13:27:57.506Z,11.38
2023-05-24T13:30:19.189Z,15.07
2023-05-24T13:32:41.349Z,11.93
2023-05-24T13:35:04.601Z,12.10
2023-05-24T13:37:27.531Z,13.70
2023-05-24T13:39:50.109Z,12.13
2023-05-24T13:42:11.831Z,9.20
2023-05-24T13:44:33.338Z,11.40
2023-05-24T13:46:56.510Z,13.57
2023-05-24T13:49:18.252Z,8.85
2023-05-24T13:51:40.314Z,9.60
2023-05-24T13:54:03.011Z,11.05
2023-05-24T13:56:25.966Z,8.35
2023-05-24T13:58:47.596Z,10.02
2023-05-24T14:01:09.447Z,10.20
2023-05-24T14:03:30.931Z,12.82
2023-05-24T14:05:52.475Z,12.00
2023-05-24T14:08:14.037Z,11.55
2023-05-24T14:10:37.084Z,10.10
2023-05-24T14:13:13.195Z,7.45
2023-05-24T14:15:39.331Z,10.38
2023-05-24T14:18:01.595Z,11.50
2023-05-24T14:20:23.190Z,13.30
2023-05-24T14:22:44.735Z,10.63
2023-05-24T14:25:07.987Z,12.63
2023-05-24T14:27:29.418Z,12.98
2023-05-24T14:29:50.898Z,11.55
2023-05-24T14:32:12.436Z,10.77
2023-05-24T14:34:33.969Z,11.70
2023-05-24T14:36:55.773Z,10.77
2023-05-24T14:39:17.300Z,17.45
2023-05-24T14:41:38.820Z,8.70
2023-05-24T14:44:00.831Z,10.00
2023-05-24T14:46:22.429Z,11.43
2023-05-24T14:48:44.104Z,9.10
2023-05-24T14:51:05.596Z,11.43
2023-05-24T14:53:27.057Z,9.90
2023-05-24T14:55:48.750Z,10.15
2023-05-24T14:58:13.725Z,10.10
2023-05-24T15:00:36.643Z,9.90
2023-05-24T15:02:58.314Z,10.27
2023-05-24T15:05:19.843Z,12.15
2023-05-24T15:07:41.327Z,9.13
2023-05-24T15:10:03.103Z,9.00
2023-05-24T15:12:24.570Z,7.47
2023-05-24T15:14:46.106Z,11.80
2023-05-24T15:17:07.870Z,9.82
2023-05-24T15:19:29.385Z,10.40
2023-05-24T15:21:50.833Z,12.55
2023-05-24T15:24:13.231Z,8.85
2023-05-24T15:26:34.822Z,9.13
2023-05-24T15:28:57.891Z,12.70
2023-05-24T15:31:19.520Z,12.43
2023-05-24T15:33:41.036Z,11.23
2023-05-24T15:36:04.285Z,8.85
2023-05-24T15:38:25.777Z,8.52
2023-05-24T15:40:47.390Z,10.07
2023-05-24T15:43:08.882Z,9.63
2023-05-24T15:45:30.375Z,11.10
2023-05-24T15:47:52.004Z,11.68
2023-05-24T15:50:13.599Z,10.30
2023-05-24T15:52:35.586Z,8.73
2023-05-24T15:54:57.110Z,10.65
2023-05-24T15:57:18.563Z,8.60
2023-05-24T15:59:40.249Z,9.90
2023-05-24T16:02:01.805Z,9.07
2023-05-24T16:04:23.385Z,11.18
2023-05-24T16:06:44.944Z,9.85
2023-05-24T16:09:07.154Z,8.45
2023-05-24T16:11:28.628Z,7.47
2023-05-24T16:13:50.444Z,10.68
2023-05-24T16:16:12.235Z,11.10
2023-05-24T16:18:35.399Z,11.32
2023-05-24T16:20:56.982Z,9.00
2023-05-24T16:23:19.360Z,11.13
2023-05-24T16:25:40.982Z,10.73
2023-05-24T16:28:03.627Z,10.75
2023-05-24T16:30:25.597Z,11.07
2023-05-24T16:32:47.150Z,9.15
2023-05-24T16:35:08.749Z,11.10
2023-05-24T16:37:30.192Z,10.93
2023-05-24T16:39:51.653Z,9.60
2023-05-24T16:42:13.278Z,11.40
2023-05-24T16:44:34.742Z,12.20
2023-05-24T16:46:56.546Z,9.13
2023-05-24T16:49:18.092Z,9.00
2023-05-24T16:51:39.565Z,11.13
2023-05-24T16:54:01.285Z,11.98
2023-05-24T16:56:23.188Z,9.45
2023-05-24T16:58:44.697Z,9.32
2023-05-24T17:01:06.493Z,10.25
2023-05-24T17:03:29.031Z,8.60
2023-05-24T17:05:53.254Z,9.73
2023-05-24T17:08:14.788Z,10.55
2023-05-24T17:10:36.305Z,10.52
2023-05-24T17:12:57.901Z,12.50
2023-05-24T17:15:19.373Z,11.68
2023-05-24T17:17:40.937Z,13.32
2023-05-24T17:20:02.599Z,9.10
2023-05-24T17:22:24.137Z,9.73
2023-05-24T17:24:46.040Z,8.23
2023-05-24T17:27:07.501Z,13.80
2023-05-24T17:29:30.084Z,7.90
2023-05-24T17:31:51.590Z,11.07
2023-05-24T17:34:15.890Z,11.80
2023-05-24T17:36:37.631Z,8.05
2023-05-24T17:38:59.181Z,10.10
2023-05-24T17:41:20.732Z,13.35
2023-05-24T17:43:42.242Z,11.30
2023-05-24T17:46:06.544Z,8.85
2023-05-24T17:48:39.677Z,10.40
2023-05-24T17:51:02.246Z,10.55
2023-05-24T17:55:51.775Z,10.50
2023-05-24T17:58:13.249Z,9.90
2023-05-24T18:00:34.711Z,10.60
2023-05-24T18:02:56.204Z,9.73
2023-05-24T18:05:17.807Z,12.70
2023-05-24T18:07:39.379Z,11.40
2023-05-24T18:10:01.373Z,10.38
2023-05-24T18:12:22.857Z,12.73
2023-05-24T18:14:44.560Z,8.93
2023-05-24T18:17:06.133Z,13.00
2023-05-24T18:19:27.672Z,12.60
2023-05-24T18:21:49.284Z,10.27
2023-05-24T18:24:10.884Z,13.75
2023-05-24T18:26:32.435Z,15.70
2023-05-24T18:28:54.561Z,10.98
2023-05-24T18:31:17.090Z,11.73
2023-05-24T18:33:38.875Z,9.82
2023-05-24T18:36:00.729Z,11.10
2023-05-24T18:38:22.187Z,9.05
2023-05-24T18:40:43.629Z,7.20
2023-05-24T18:43:05.178Z,8.82
2023-05-24T18:45:26.617Z,11.73
2023-05-24T18:47:48.158Z,10.57
2023-05-24T18:50:10.130Z,7.78
2023-05-24T18:52:31.592Z,9.43
2023-05-24T18:54:55.013Z,9.30
2023-05-24T18:57:16.482Z,9.77
2023-05-24T18:59:38.742Z,8.05
2023-05-24T19:02:03.385Z,10.23
2023-05-24T19:04:24.879Z,12.20
2023-05-24T19:06:46.366Z,7.50
2023-05-24T19:09:07.842Z,8.60
2023-05-24T19:11:30.444Z,9.10
2023-05-24T19:13:51.950Z,8.52
2023-05-24T19:16:17.451Z,8.60
2023-05-24T19:18:39.315Z,9.80
2023-05-24T19:21:00.887Z,7.53
2023-05-24T19:23:22.414Z,11.03
2023-05-24T19:25:44.312Z,8.33
2023-05-24T19:28:06.313Z,10.20
2023-05-24T19:30:28.002Z,9.37
2023-05-24T19:32:49.602Z,7.77
2023-05-24T19:35:12.262Z,8.20
2023-05-24T19:37:33.740Z,11.70
2023-05-24T19:39:55.210Z,11.70
2023-05-24T19:42:16.651Z,10.33
2023-05-24T19:44:38.106Z,7.07
2023-05-24T19:46:59.630Z,9.20
2023-05-24T19:49:21.110Z,8.43
2023-05-24T19:51:42.600Z,12.80
2023-05-24T19:54:04.432Z,10.50
2023-05-24T19:56:26.114Z,7.77
2023-05-24T19:58:47.605Z,8.63
2023-05-24T20:01:09.092Z,7.87
2023-05-24T20:03:31.358Z,7.13
2023-05-24T20:05:52.885Z,7.27
2023-05-24T20:08:16.587Z,10.83
2023-05-24T20:10:38.942Z,14.27
2023-05-24T20:13:00.480Z,11.40
2023-05-24T20:15:27.405Z,12.40
2023-05-24T20:17:48.971Z,7.57
2023-05-24T20:20:11.546Z,8.73
2023-05-24T20:22:33.042Z,10.53
2023-05-24T20:24:54.474Z,32.63
2023-05-24T20:27:16.057Z,9.07
2023-05-24T20:29:37.499Z,10.03
2023-05-24T20:31:59.082Z,16.80
2023-05-24T20:34:21.093Z,16.60
2023-05-24T20:36:43.851Z,8.33
2023-05-24T20:39:05.564Z,12.40
2023-05-24T20:41:30.331Z,7.97
2023-05-24T20:43:51.813Z,9.90
2023-05-24T20:46:14.042Z,9.77
2023-05-24T20:48:35.598Z,12.77
2023-05-24T20:50:57.444Z,10.63
2023-05-24T20:53:19.011Z,13.13
2023-05-24T20:55:40.482Z,11.23
2023-05-24T20:58:01.977Z,6.53
2023-05-24T21:00:23.438Z,12.03
2023-05-24T21:02:45.044Z,13.33
2023-05-24T21:05:07.149Z,9.97
2023-05-24T21:07:28.670Z,9.50
2023-05-24T21:09:50.229Z,14.60
2023-05-24T21:12:11.840Z,9.13
2023-05-24T21:14:33.301Z,9.27
2023-05-24T21:16:55.129Z,11.20
2023-05-24T21:19:16.649Z,11.40
2023-05-24T21:21:38.200Z,7.83
2023-05-24T21:23:59.690Z,9.43
2023-05-24T21:26:22.710Z,7.83
2023-05-24T21:28:44.921Z,14.87
2023-05-24T21:31:06.813Z,7.10
2023-05-24T21:33:28.329Z,7.63
2023-05-24T21:35:49.842Z,9.53
2023-05-24T21:38:11.635Z,9.20
2023-05-24T21:40:33.131Z,10.47
2023-05-24T21:42:54.613Z,6.47
2023-05-24T21:45:16.098Z,10.20
2023-05-24T21:47:37.583Z,7.77
2023-05-24T21:49:59.206Z,6.10
2023-05-24T21:52:20.722Z,9.90
2023-05-24T21:54:42.187Z,8.10
2023-05-24T21:57:03.824Z,6.73
2023-05-24T21:59:25.300Z,8.43
2023-05-24T22:01:46.881Z,11.23
2023-05-24T22:04:09.646Z,10.00
2023-05-24T22:06:31.259Z,9.43
2023-05-24T22:08:52.761Z,10.90
2023-05-24T22:11:14.275Z,10.97
2023-05-24T22:13:35.788Z,10.10
2023-05-24T22:15:57.665Z,10.10
2023-05-24T22:18:21.189Z,11.50
2023-05-24T22:20:44.856Z,9.20
2023-05-24T22:23:06.728Z,9.83
2023-05-24T22:25:28.585Z,8.13
2023-05-24T22:27:50.528Z,11.63
2023-05-24T22:30:13.078Z,8.77
2023-05-24T22:32:34.620Z,8.03
2023-05-24T22:34:56.131Z,11.37
2023-05-24T22:37:17.686Z,10.37
2023-05-24T22:39:39.203Z,12.63
2023-05-24T22:42:01.697Z,12.07
2023-05-24T22:44:23.252Z,13.37
2023-05-24T22:46:44.838Z,14.70
2023-05-24T22:49:06.511Z,12.07
2023-05-24T22:51:28.629Z,10.83
2023-05-24T22:53:52.568Z,12.07
2023-05-24T22:56:14.443Z,9.33
2023-05-24T22:58:36.816Z,8.10
2023-05-24T23:00:58.376Z,7.40
2023-05-24T23:03:21.932Z,7.37
2023-05-24T23:05:43.816Z,8.43
2023-05-24T23:08:05.702Z,15.37
2023-05-24T23:10:27.169Z,8.27
2023-05-24T23:12:48.742Z,9.17
2023-05-24T23:15:11.511Z,9.40
2023-05-24T23:17:33.018Z,16.93
2023-05-24T23:19:54.589Z,10.57
2023-05-24T23:22:19.465Z,13.10
2023-05-24T23:24:44.578Z,7.10
2023-05-24T23:27:06.483Z,8.70
2023-05-24T23:29:27.971Z,9.30
2023-05-24T23:31:49.457Z,9.07
2023-05-24T23:34:11.165Z,7.37
2023-05-24T23:36:32.675Z,8.07
2023-05-24T23:38:54.153Z,10.53
2023-05-24T23:41:16.092Z,5.97
2023-05-24T23:43:37.848Z,7.87
2023-05-24T23:45:59.302Z,6.73
2023-05-24T23:48:23.516Z,6.37
2023-05-24T23:50:53.976Z,11.50
2023-05-24T23:53:16.068Z,10.27
2023-05-24T23:55:37.607Z,9.47
2023-05-24T23:58:00.357Z,10.67
